Friendship, Indiana
Current Conditions -  °F | °C
As of 6:33 AM on Thursday 18 Dec 2014 (Local Time) from KIMS Reporting Station
Overcast Overcast  
Wind Chill: -5°   Ceiling: 1300
Heat Index: -2°   Visibility: 10mi
Dew Point: -6°   Wind: 5mph
Humidity: 74%   Direction: 40°NE
Pressure: 30.28"   Gusts: NA
Location:  38.97°N, 85.15°W
Report Text: KIMS 181133Z AUTO 04004KT 10SM OVC013 M02/M06 A3028 RMK AO1
Loading
Personal Weather Stations






























Interactive Weather Map New forecast layout! Learn more

10-Day Weather Forecast

Advertisements
Track Severe Weather on mobile